SARF/FMA METAR and TAF weather

Enter ICAO airport designator
Station Type Date Time Source
SARF METAR 2019/02/18 04:00 UTC NOAA

SARF 180400Z 09005KT CAVOK 24/22 Q1008


Station Type Date Time Source
SARF Decoded METAR 2019/02/18 04:00 UTC NOAA

Formosa Aerodrome, Argentina (SARF) 26-12S 058-14W 60M
Feb 17, 2019 - 11:00 PM EST / 2019.02.18 0400 UTC
Wind: from the E (090 degrees) at 6 MPH (5 KT):0
Visibility: greater than 7 mile(s):0
Temperature: 75 F (24 C)
Dew Point: 71 F (22 C)
Relative Humidity: 88%
Pressure (altimeter): 29.77 in. Hg (1008 hPa)
ob: SARF 180400Z 09005KT CAVOK 24/22 Q1008
cycle: 4

Station Type Date Time Source
SARF TAF 2019/02/18 00:00 UTC NOAA

TAF SARF 172300Z 1800/1824 11005KT CAVOK TX34/1818Z TN23/1809Z


Example: see airport list